sensor_id;sensor_type;location;lat;lon;timestamp;P1;durP1;ratioP1;P2;durP2;ratioP2
20078;SDS011;10199;48.850;8.924;2022-09-03T00:02:34;2.50;;;1.50;;
20078;SDS011;10199;48.850;8.924;2022-09-03T00:05:07;1.43;;;1.33;;
20078;SDS011;10199;48.850;8.924;2022-09-03T00:07:43;2.23;;;1.53;;
20078;SDS011;10199;48.850;8.924;2022-09-03T00:10:20;2.13;;;1.50;;
20078;SDS011;10199;48.850;8.924;2022-09-03T00:12:51;2.80;;;1.60;;
20078;SDS011;10199;48.850;8.924;2022-09-03T00:15:24;1.63;;;1.40;;
20078;SDS011;10199;48.850;8.924;2022-09-03T00:17:53;1.50;;;1.40;;
20078;SDS011;10199;48.850;8.924;2022-09-03T00:20:26;1.70;;;1.60;;
20078;SDS011;10199;48.850;8.924;2022-09-03T00:23:00;3.23;;;1.80;;
20078;SDS011;10199;48.850;8.924;2022-09-03T00:25:33;2.80;;;1.60;;
20078;SDS011;10199;48.850;8.924;2022-09-03T00:28:06;1.57;;;1.43;;
20078;SDS011;10199;48.850;8.924;2022-09-03T00:30:39;2.77;;;1.50;;
20078;SDS011;10199;48.850;8.924;2022-09-03T00:33:10;2.00;;;1.50;;
20078;SDS011;10199;48.850;8.924;2022-09-03T00:35:44;2.40;;;1.70;;
20078;SDS011;10199;48.850;8.924;2022-09-03T00:38:18;2.77;;;1.63;;
20078;SDS011;10199;48.850;8.924;2022-09-03T00:40:51;1.93;;;1.60;;
20078;SDS011;10199;48.850;8.924;2022-09-03T00:43:36;2.17;;;1.30;;
20078;SDS011;10199;48.850;8.924;2022-09-03T00:46:16;2.73;;;1.60;;
20078;SDS011;10199;48.850;8.924;2022-09-03T00:48:54;1.47;;;1.37;;
20078;SDS011;10199;48.850;8.924;2022-09-03T00:51:35;1.37;;;1.27;;
20078;SDS011;10199;48.850;8.924;2022-09-03T00:54:09;1.90;;;1.30;;
20078;SDS011;10199;48.850;8.924;2022-09-03T00:56:45;1.90;;;1.80;;
20078;SDS011;10199;48.850;8.924;2022-09-03T00:59:23;4.00;;;1.90;;
20078;SDS011;10199;48.850;8.924;2022-09-03T01:02:00;2.53;;;1.70;;
20078;SDS011;10199;48.850;8.924;2022-09-03T01:04:37;3.53;;;1.90;;
20078;SDS011;10199;48.850;8.924;2022-09-03T01:07:17;1.53;;;1.40;;
20078;SDS011;10199;48.850;8.924;2022-09-03T01:09:58;2.50;;;1.67;;
20078;SDS011;10199;48.850;8.924;2022-09-03T01:12:46;1.63;;;1.53;;
20078;SDS011;10199;48.850;8.924;2022-09-03T01:15:20;4.97;;;2.00;;
20078;SDS011;10199;48.850;8.924;2022-09-03T01:18:03;2.10;;;1.70;;
20078;SDS011;10199;48.850;8.924;2022-09-03T01:20:44;2.20;;;2.00;;
20078;SDS011;10199;48.850;8.924;2022-09-03T01:26:29;1.90;;;1.80;;
20078;SDS011;10199;48.850;8.924;2022-09-03T01:29:10;3.57;;;1.90;;
20078;SDS011;10199;48.850;8.924;2022-09-03T01:31:49;4.27;;;1.60;;
20078;SDS011;10199;48.850;8.924;2022-09-03T01:34:31;2.70;;;1.60;;
20078;SDS011;10199;48.850;8.924;2022-09-03T01:37:13;2.80;;;1.83;;
20078;SDS011;10199;48.850;8.924;2022-09-03T01:39:52;1.50;;;1.40;;
20078;SDS011;10199;48.850;8.924;2022-09-03T01:42:28;1.70;;;1.50;;
20078;SDS011;10199;48.850;8.924;2022-09-03T01:45:12;2.07;;;1.60;;
20078;SDS011;10199;48.850;8.924;2022-09-03T01:47:54;1.80;;;1.40;;
20078;SDS011;10199;48.850;8.924;2022-09-03T01:50:35;2.33;;;1.67;;
20078;SDS011;10199;48.850;8.924;2022-09-03T01:53:09;1.50;;;1.27;;
20078;SDS011;10199;48.850;8.924;2022-09-03T01:55:59;1.30;;;1.20;;
20078;SDS011;10199;48.850;8.924;2022-09-03T01:58:39;2.37;;;1.60;;
20078;SDS011;10199;48.850;8.924;2022-09-03T02:01:13;1.63;;;1.53;;
20078;SDS011;10199;48.850;8.924;2022-09-03T02:03:46;1.67;;;1.57;;
20078;SDS011;10199;48.850;8.924;2022-09-03T02:06:15;2.67;;;1.90;;
20078;SDS011;10199;48.850;8.924;2022-09-03T02:08:46;2.27;;;1.90;;
20078;SDS011;10199;48.850;8.924;2022-09-03T02:11:14;2.60;;;1.90;;
20078;SDS011;10199;48.850;8.924;2022-09-03T02:13:43;2.27;;;2.07;;
20078;SDS011;10199;48.850;8.924;2022-09-03T02:16:16;4.67;;;2.27;;
20078;SDS011;10199;48.850;8.924;2022-09-03T02:18:47;1.93;;;1.83;;
20078;SDS011;10199;48.850;8.924;2022-09-03T02:21:20;1.40;;;1.30;;
20078;SDS011;10199;48.850;8.924;2022-09-03T02:23:50;5.03;;;1.97;;
20078;SDS011;10199;48.850;8.924;2022-09-03T02:26:21;2.47;;;1.83;;
20078;SDS011;10199;48.850;8.924;2022-09-03T02:31:34;3.23;;;1.90;;
20078;SDS011;10199;48.850;8.924;2022-09-03T02:34:04;2.60;;;1.53;;
20078;SDS011;10199;48.850;8.924;2022-09-03T02:36:33;2.70;;;1.53;;
20078;SDS011;10199;48.850;8.924;2022-09-03T02:39:02;1.70;;;1.60;;
20078;SDS011;10199;48.850;8.924;2022-09-03T02:41:31;1.83;;;1.40;;
20078;SDS011;10199;48.850;8.924;2022-09-03T02:44:01;2.87;;;1.77;;
20078;SDS011;10199;48.850;8.924;2022-09-03T02:46:33;1.77;;;1.67;;
20078;SDS011;10199;48.850;8.924;2022-09-03T02:49:05;2.00;;;1.80;;
20078;SDS011;10199;48.850;8.924;2022-09-03T02:51:34;2.70;;;2.07;;
20078;SDS011;10199;48.850;8.924;2022-09-03T02:54:03;2.67;;;1.90;;
20078;SDS011;10199;48.850;8.924;2022-09-03T02:56:31;2.27;;;1.80;;
20078;SDS011;10199;48.850;8.924;2022-09-03T02:59:00;3.63;;;1.97;;
20078;SDS011;10199;48.850;8.924;2022-09-03T03:01:28;3.37;;;1.97;;
20078;SDS011;10199;48.850;8.924;2022-09-03T03:03:57;2.20;;;2.00;;
20078;SDS011;10199;48.850;8.924;2022-09-03T03:06:25;2.57;;;2.00;;
20078;SDS011;10199;48.850;8.924;2022-09-03T03:08:53;2.73;;;1.80;;
20078;SDS011;10199;48.850;8.924;2022-09-03T03:11:23;3.43;;;2.03;;
20078;SDS011;10199;48.850;8.924;2022-09-03T03:13:51;2.87;;;1.77;;
20078;SDS011;10199;48.850;8.924;2022-09-03T03:16:19;2.63;;;1.60;;
20078;SDS011;10199;48.850;8.924;2022-09-03T03:18:47;2.10;;;1.90;;
20078;SDS011;10199;48.850;8.924;2022-09-03T03:21:17;3.83;;;2.00;;
20078;SDS011;10199;48.850;8.924;2022-09-03T03:23:46;2.30;;;2.10;;
20078;SDS011;10199;48.850;8.924;2022-09-03T03:26:14;3.37;;;2.17;;
20078;SDS011;10199;48.850;8.924;2022-09-03T03:28:45;2.47;;;2.27;;
20078;SDS011;10199;48.850;8.924;2022-09-03T03:31:15;2.63;;;2.20;;
20078;SDS011;10199;48.850;8.924;2022-09-03T03:33:48;2.80;;;2.03;;
20078;SDS011;10199;48.850;8.924;2022-09-03T03:36:20;3.50;;;1.97;;
20078;SDS011;10199;48.850;8.924;2022-09-03T03:38:52;2.57;;;2.00;;
20078;SDS011;10199;48.850;8.924;2022-09-03T03:41:21;2.30;;;2.10;;
20078;SDS011;10199;48.850;8.924;2022-09-03T03:43:51;2.77;;;2.30;;
20078;SDS011;10199;48.850;8.924;2022-09-03T03:46:20;3.70;;;2.27;;
20078;SDS011;10199;48.850;8.924;2022-09-03T03:48:49;3.27;;;2.43;;
20078;SDS011;10199;48.850;8.924;2022-09-03T03:51:19;2.23;;;2.03;;
20078;SDS011;10199;48.850;8.924;2022-09-03T03:53:47;1.80;;;1.70;;
20078;SDS011;10199;48.850;8.924;2022-09-03T03:56:15;2.10;;;1.70;;
20078;SDS011;10199;48.850;8.924;2022-09-03T03:58:43;2.20;;;2.00;;
20078;SDS011;10199;48.850;8.924;2022-09-03T04:01:11;2.13;;;1.93;;
20078;SDS011;10199;48.850;8.924;2022-09-03T04:03:40;3.53;;;2.00;;
20078;SDS011;10199;48.850;8.924;2022-09-03T04:06:10;2.17;;;1.97;;
20078;SDS011;10199;48.850;8.924;2022-09-03T04:08:41;2.37;;;2.03;;
20078;SDS011;10199;48.850;8.924;2022-09-03T04:11:11;3.40;;;1.90;;
20078;SDS011;10199;48.850;8.924;2022-09-03T04:13:40;1.83;;;1.70;;
20078;SDS011;10199;48.850;8.924;2022-09-03T04:16:10;1.97;;;1.80;;
20078;SDS011;10199;48.850;8.924;2022-09-03T04:18:39;2.90;;;2.10;;
20078;SDS011;10199;48.850;8.924;2022-09-03T04:21:09;5.90;;;2.07;;
20078;SDS011;10199;48.850;8.924;2022-09-03T04:23:39;3.07;;;1.60;;
20078;SDS011;10199;48.850;8.924;2022-09-03T04:26:11;1.80;;;1.70;;
20078;SDS011;10199;48.850;8.924;2022-09-03T04:28:40;1.90;;;1.80;;
20078;SDS011;10199;48.850;8.924;2022-09-03T04:31:09;3.87;;;2.03;;
20078;SDS011;10199;48.850;8.924;2022-09-03T04:33:39;2.57;;;1.97;;
20078;SDS011;10199;48.850;8.924;2022-09-03T04:36:08;3.30;;;1.83;;
20078;SDS011;10199;48.850;8.924;2022-09-03T04:38:38;2.50;;;2.30;;
20078;SDS011;10199;48.850;8.924;2022-09-03T04:41:10;3.67;;;2.47;;
20078;SDS011;10199;48.850;8.924;2022-09-03T04:43:39;2.57;;;2.00;;
20078;SDS011;10199;48.850;8.924;2022-09-03T04:46:09;2.40;;;2.20;;
20078;SDS011;10199;48.850;8.924;2022-09-03T04:48:38;2.60;;;2.40;;
20078;SDS011;10199;48.850;8.924;2022-09-03T04:51:07;4.07;;;2.37;;
20078;SDS011;10199;48.850;8.924;2022-09-03T04:53:38;2.47;;;2.27;;
20078;SDS011;10199;48.850;8.924;2022-09-03T04:56:12;3.27;;;2.40;;
20078;SDS011;10199;48.850;8.924;2022-09-03T04:58:41;2.80;;;2.60;;
20078;SDS011;10199;48.850;8.924;2022-09-03T05:01:10;2.40;;;2.20;;
20078;SDS011;10199;48.850;8.924;2022-09-03T05:03:39;5.23;;;2.33;;
20078;SDS011;10199;48.850;8.924;2022-09-03T05:06:07;2.80;;;2.60;;
20078;SDS011;10199;48.850;8.924;2022-09-03T05:08:36;2.90;;;2.60;;
20078;SDS011;10199;48.850;8.924;2022-09-03T05:11:05;3.03;;;2.77;;
20078;SDS011;10199;48.850;8.924;2022-09-03T05:13:36;2.93;;;2.70;;
20078;SDS011;10199;48.850;8.924;2022-09-03T05:16:05;2.97;;;2.67;;
20078;SDS011;10199;48.850;8.924;2022-09-03T05:18:34;4.83;;;3.30;;
20078;SDS011;10199;48.850;8.924;2022-09-03T05:21:04;4.50;;;3.10;;
20078;SDS011;10199;48.850;8.924;2022-09-03T05:23:34;3.73;;;3.13;;
20078;SDS011;10199;48.850;8.924;2022-09-03T05:26:04;3.43;;;2.83;;
20078;SDS011;10199;48.850;8.924;2022-09-03T05:28:36;3.47;;;3.17;;
20078;SDS011;10199;48.850;8.924;2022-09-03T05:31:06;3.23;;;2.87;;
20078;SDS011;10199;48.850;8.924;2022-09-03T05:33:36;3.73;;;2.90;;
20078;SDS011;10199;48.850;8.924;2022-09-03T05:36:06;3.50;;;3.20;;
20078;SDS011;10199;48.850;8.924;2022-09-03T05:38:36;3.20;;;2.90;;
20078;SDS011;10199;48.850;8.924;2022-09-03T05:41:05;3.30;;;3.00;;
20078;SDS011;10199;48.850;8.924;2022-09-03T05:43:36;3.30;;;2.90;;
20078;SDS011;10199;48.850;8.924;2022-09-03T05:46:06;3.20;;;2.90;;
20078;SDS011;10199;48.850;8.924;2022-09-03T05:48:36;3.40;;;3.10;;
20078;SDS011;10199;48.850;8.924;2022-09-03T05:51:06;3.20;;;3.00;;
20078;SDS011;10199;48.850;8.924;2022-09-03T05:53:36;3.40;;;3.10;;
20078;SDS011;10199;48.850;8.924;2022-09-03T05:56:06;3.37;;;3.13;;
20078;SDS011;10199;48.850;8.924;2022-09-03T05:58:39;3.53;;;3.23;;
20078;SDS011;10199;48.850;8.924;2022-09-03T06:01:10;4.70;;;3.30;;
20078;SDS011;10199;48.850;8.924;2022-09-03T06:03:39;3.40;;;3.10;;
20078;SDS011;10199;48.850;8.924;2022-09-03T06:06:09;3.40;;;3.20;;
20078;SDS011;10199;48.850;8.924;2022-09-03T06:08:39;3.60;;;3.30;;
20078;SDS011;10199;48.850;8.924;2022-09-03T06:11:10;3.63;;;3.40;;
20078;SDS011;10199;48.850;8.924;2022-09-03T06:13:40;3.63;;;3.23;;
20078;SDS011;10199;48.850;8.924;2022-09-03T06:16:08;3.87;;;3.50;;
20078;SDS011;10199;48.850;8.924;2022-09-03T06:18:36;4.20;;;3.40;;
20078;SDS011;10199;48.850;8.924;2022-09-03T06:21:05;4.20;;;3.90;;
20078;SDS011;10199;48.850;8.924;2022-09-03T06:23:34;3.60;;;3.30;;
20078;SDS011;10199;48.850;8.924;2022-09-03T06:26:03;4.37;;;3.20;;
20078;SDS011;10199;48.850;8.924;2022-09-03T06:28:34;3.80;;;3.47;;
20078;SDS011;10199;48.850;8.924;2022-09-03T06:31:05;3.60;;;3.30;;
20078;SDS011;10199;48.850;8.924;2022-09-03T06:33:35;4.13;;;3.40;;
20078;SDS011;10199;48.850;8.924;2022-09-03T06:36:05;3.60;;;3.30;;
20078;SDS011;10199;48.850;8.924;2022-09-03T06:38:36;4.13;;;3.17;;
20078;SDS011;10199;48.850;8.924;2022-09-03T06:41:05;3.60;;;3.30;;
20078;SDS011;10199;48.850;8.924;2022-09-03T06:43:36;3.67;;;3.17;;
20078;SDS011;10199;48.850;8.924;2022-09-03T06:46:09;3.80;;;3.50;;
20078;SDS011;10199;48.850;8.924;2022-09-03T06:48:39;3.67;;;3.33;;
20078;SDS011;10199;48.850;8.924;2022-09-03T06:51:09;3.70;;;3.40;;
20078;SDS011;10199;48.850;8.924;2022-09-03T06:53:38;4.07;;;3.73;;
20078;SDS011;10199;48.850;8.924;2022-09-03T06:56:08;4.97;;;4.00;;
20078;SDS011;10199;48.850;8.924;2022-09-03T06:58:40;4.43;;;3.43;;
20078;SDS011;10199;48.850;8.924;2022-09-03T07:01:12;4.53;;;3.30;;
20078;SDS011;10199;48.850;8.924;2022-09-03T07:03:42;3.93;;;3.63;;
20078;SDS011;10199;48.850;8.924;2022-09-03T07:06:11;3.83;;;3.40;;
20078;SDS011;10199;48.850;8.924;2022-09-03T07:08:41;3.77;;;3.40;;
20078;SDS011;10199;48.850;8.924;2022-09-03T07:11:12;4.07;;;3.77;;
20078;SDS011;10199;48.850;8.924;2022-09-03T07:13:44;3.20;;;3.00;;
20078;SDS011;10199;48.850;8.924;2022-09-03T07:16:16;4.23;;;3.67;;
20078;SDS011;10199;48.850;8.924;2022-09-03T07:18:45;3.20;;;2.93;;
20078;SDS011;10199;48.850;8.924;2022-09-03T07:21:15;4.00;;;3.17;;
20078;SDS011;10199;48.850;8.924;2022-09-03T07:23:44;3.63;;;3.30;;
20078;SDS011;10199;48.850;8.924;2022-09-03T07:26:14;3.33;;;3.03;;
20078;SDS011;10199;48.850;8.924;2022-09-03T07:28:44;3.10;;;2.80;;
20078;SDS011;10199;48.850;8.924;2022-09-03T07:31:17;3.73;;;3.30;;
20078;SDS011;10199;48.850;8.924;2022-09-03T07:33:48;3.33;;;2.80;;
20078;SDS011;10199;48.850;8.924;2022-09-03T07:36:16;3.47;;;3.17;;
20078;SDS011;10199;48.850;8.924;2022-09-03T07:38:45;4.90;;;3.03;;
20078;SDS011;10199;48.850;8.924;2022-09-03T07:41:13;3.30;;;3.00;;
20078;SDS011;10199;48.850;8.924;2022-09-03T07:43:43;3.07;;;2.87;;
20078;SDS011;10199;48.850;8.924;2022-09-03T07:46:12;5.10;;;3.17;;
20078;SDS011;10199;48.850;8.924;2022-09-03T07:48:45;2.90;;;2.70;;
20078;SDS011;10199;48.850;8.924;2022-09-03T07:51:16;3.45;;;3.15;;
20078;SDS011;10199;48.850;8.924;2022-09-03T07:53:45;3.33;;;3.03;;
20078;SDS011;10199;48.850;8.924;2022-09-03T07:56:14;2.95;;;2.75;;
20078;SDS011;10199;48.850;8.924;2022-09-03T07:58:44;2.97;;;2.70;;
20078;SDS011;10199;48.850;8.924;2022-09-03T08:01:13;3.00;;;2.80;;
20078;SDS011;10199;48.850;8.924;2022-09-03T08:03:44;3.63;;;2.90;;
20078;SDS011;10199;48.850;8.924;2022-09-03T08:06:16;3.55;;;3.33;;
20078;SDS011;10199;48.850;8.924;2022-09-03T08:08:46;3.53;;;3.20;;
20078;SDS011;10199;48.850;8.924;2022-09-03T08:11:15;3.50;;;3.20;;
20078;SDS011;10199;48.850;8.924;2022-09-03T08:13:47;3.70;;;3.40;;
20078;SDS011;10199;48.850;8.924;2022-09-03T08:16:20;3.67;;;2.97;;
20078;SDS011;10199;48.850;8.924;2022-09-03T08:18:49;3.92;;;3.50;;
20078;SDS011;10199;48.850;8.924;2022-09-03T08:21:18;3.33;;;3.03;;
20078;SDS011;10199;48.850;8.924;2022-09-03T08:23:48;3.83;;;3.42;;
20078;SDS011;10199;48.850;8.924;2022-09-03T08:26:19;3.78;;;3.45;;
20078;SDS011;10199;48.850;8.924;2022-09-03T08:28:51;3.80;;;3.47;;
20078;SDS011;10199;48.850;8.924;2022-09-03T08:31:20;4.18;;;3.47;;
20078;SDS011;10199;48.850;8.924;2022-09-03T08:33:52;4.15;;;3.10;;
20078;SDS011;10199;48.850;8.924;2022-09-03T08:36:22;4.90;;;3.25;;
20078;SDS011;10199;48.850;8.924;2022-09-03T08:38:52;3.03;;;2.83;;
20078;SDS011;10199;48.850;8.924;2022-09-03T08:41:22;4.38;;;3.50;;
20078;SDS011;10199;48.850;8.924;2022-09-03T08:44:01;3.17;;;2.88;;
20078;SDS011;10199;48.850;8.924;2022-09-03T08:46:45;4.53;;;3.28;;
20078;SDS011;10199;48.850;8.924;2022-09-03T08:49:20;2.72;;;2.53;;
20078;SDS011;10199;48.850;8.924;2022-09-03T08:51:53;3.15;;;2.95;;
20078;SDS011;10199;48.850;8.924;2022-09-03T08:57:21;3.35;;;3.03;;
20078;SDS011;10199;48.850;8.924;2022-09-03T08:59:50;3.28;;;3.08;;
20078;SDS011;10199;48.850;8.924;2022-09-03T09:02:30;2.78;;;2.58;;
20078;SDS011;10199;48.850;8.924;2022-09-03T09:05:13;3.35;;;2.90;;
20078;SDS011;10199;48.850;8.924;2022-09-03T09:07:47;4.00;;;2.70;;
20078;SDS011;10199;48.850;8.924;2022-09-03T09:10:21;4.38;;;2.70;;
20078;SDS011;10199;48.850;8.924;2022-09-03T09:12:57;3.42;;;2.95;;
20078;SDS011;10199;48.850;8.924;2022-09-03T09:15:37;3.13;;;2.90;;
20078;SDS011;10199;48.850;8.924;2022-09-03T09:18:17;2.88;;;2.67;;
20078;SDS011;10199;48.850;8.924;2022-09-03T09:20:58;3.45;;;2.83;;
20078;SDS011;10199;48.850;8.924;2022-09-03T09:23:35;3.33;;;3.03;;
20078;SDS011;10199;48.850;8.924;2022-09-03T09:26:08;2.72;;;2.53;;
20078;SDS011;10199;48.850;8.924;2022-09-03T09:28:40;3.00;;;2.80;;
20078;SDS011;10199;48.850;8.924;2022-09-03T09:31:11;3.10;;;2.85;;
20078;SDS011;10199;48.850;8.924;2022-09-03T09:33:43;3.63;;;2.80;;
20078;SDS011;10199;48.850;8.924;2022-09-03T09:36:16;3.05;;;2.85;;
20078;SDS011;10199;48.850;8.924;2022-09-03T09:38:50;5.35;;;3.03;;
20078;SDS011;10199;48.850;8.924;2022-09-03T09:41:19;3.53;;;2.95;;
20078;SDS011;10199;48.850;8.924;2022-09-03T09:43:58;6.03;;;2.70;;
20078;SDS011;10199;48.850;8.924;2022-09-03T09:46:28;3.20;;;2.90;;
20078;SDS011;10199;48.850;8.924;2022-09-03T09:49:02;3.45;;;2.88;;
20078;SDS011;10199;48.850;8.924;2022-09-03T09:51:31;3.08;;;2.85;;
20078;SDS011;10199;48.850;8.924;2022-09-03T09:54:00;4.38;;;3.05;;
20078;SDS011;10199;48.850;8.924;2022-09-03T09:56:31;3.70;;;3.38;;
20078;SDS011;10199;48.850;8.924;2022-09-03T09:59:04;3.60;;;3.03;;
20078;SDS011;10199;48.850;8.924;2022-09-03T10:01:37;3.20;;;2.90;;
20078;SDS011;10199;48.850;8.924;2022-09-03T10:04:08;4.22;;;3.00;;
20078;SDS011;10199;48.850;8.924;2022-09-03T10:06:39;3.33;;;3.03;;
20078;SDS011;10199;48.850;8.924;2022-09-03T10:09:24;4.88;;;3.15;;
20078;SDS011;10199;48.850;8.924;2022-09-03T10:11:56;3.35;;;3.05;;
20078;SDS011;10199;48.850;8.924;2022-09-03T10:14:41;3.45;;;2.97;;
20078;SDS011;10199;48.850;8.924;2022-09-03T10:17:13;3.75;;;3.13;;
20078;SDS011;10199;48.850;8.924;2022-09-03T10:19:49;2.85;;;2.65;;
20078;SDS011;10199;48.850;8.924;2022-09-03T10:22:47;3.90;;;2.97;;
20078;SDS011;10199;48.850;8.924;2022-09-03T10:25:20;3.15;;;2.88;;
20078;SDS011;10199;48.850;8.924;2022-09-03T10:27:50;2.83;;;2.60;;
20078;SDS011;10199;48.850;8.924;2022-09-03T10:30:19;4.30;;;2.60;;
20078;SDS011;10199;48.850;8.924;2022-09-03T10:32:53;4.05;;;2.85;;
20078;SDS011;10199;48.850;8.924;2022-09-03T10:35:33;2.60;;;2.40;;
20078;SDS011;10199;48.850;8.924;2022-09-03T10:38:16;3.13;;;2.88;;
20078;SDS011;10199;48.850;8.924;2022-09-03T10:40:55;2.40;;;2.20;;
20078;SDS011;10199;48.850;8.924;2022-09-03T10:43:41;2.65;;;2.45;;
20078;SDS011;10199;48.850;8.924;2022-09-03T10:46:27;3.38;;;2.55;;
20078;SDS011;10199;48.850;8.924;2022-09-03T10:52:12;2.95;;;2.50;;
20078;SDS011;10199;48.850;8.924;2022-09-03T10:54:54;2.88;;;2.55;;
20078;SDS011;10199;48.850;8.924;2022-09-03T10:57:37;4.45;;;2.80;;
20078;SDS011;10199;48.850;8.924;2022-09-03T11:00:19;3.30;;;2.50;;
20078;SDS011;10199;48.850;8.924;2022-09-03T11:13:40;2.13;;;1.92;;
20078;SDS011;10199;48.850;8.924;2022-09-03T11:16:21;4.05;;;2.50;;
20078;SDS011;10199;48.850;8.924;2022-09-03T11:18:53;2.60;;;2.35;;
20078;SDS011;10199;48.850;8.924;2022-09-03T11:21:25;2.78;;;2.58;;
20078;SDS011;10199;48.850;8.924;2022-09-03T11:23:57;3.97;;;2.60;;
20078;SDS011;10199;48.850;8.924;2022-09-03T11:26:34;2.85;;;2.65;;
20078;SDS011;10199;48.850;8.924;2022-09-03T11:29:05;5.07;;;2.78;;
20078;SDS011;10199;48.850;8.924;2022-09-03T11:31:44;2.80;;;2.60;;
20078;SDS011;10199;48.850;8.924;2022-09-03T11:34:25;2.47;;;2.28;;
20078;SDS011;10199;48.850;8.924;2022-09-03T11:37:03;2.83;;;2.63;;
20078;SDS011;10199;48.850;8.924;2022-09-03T11:39:34;3.45;;;3.20;;
20078;SDS011;10199;48.850;8.924;2022-09-03T11:42:10;3.00;;;2.80;;
20078;SDS011;10199;48.850;8.924;2022-09-03T11:44:49;2.53;;;2.33;;
20078;SDS011;10199;48.850;8.924;2022-09-03T11:47:20;2.92;;;2.60;;
20078;SDS011;10199;48.850;8.924;2022-09-03T11:49:50;2.72;;;2.53;;
20078;SDS011;10199;48.850;8.924;2022-09-03T11:52:26;3.97;;;2.53;;
20078;SDS011;10199;48.850;8.924;2022-09-03T11:54:55;2.58;;;2.40;;
20078;SDS011;10199;48.850;8.924;2022-09-03T11:57:30;2.97;;;2.65;;
20078;SDS011;10199;48.850;8.924;2022-09-03T12:00:11;2.63;;;2.42;;
20078;SDS011;10199;48.850;8.924;2022-09-03T12:02:43;2.15;;;2.00;;
20078;SDS011;10199;48.850;8.924;2022-09-03T12:05:25;2.65;;;2.45;;
20078;SDS011;10199;48.850;8.924;2022-09-03T12:11:21;3.08;;;2.78;;
20078;SDS011;10199;48.850;8.924;2022-09-03T12:14:03;2.70;;;2.50;;
20078;SDS011;10199;48.850;8.924;2022-09-03T12:16:41;2.60;;;2.40;;
20078;SDS011;10199;48.850;8.924;2022-09-03T12:19:25;3.30;;;2.90;;
20078;SDS011;10199;48.850;8.924;2022-09-03T12:21:58;3.33;;;2.55;;
20078;SDS011;10199;48.850;8.924;2022-09-03T12:24:31;2.95;;;2.75;;
20078;SDS011;10199;48.850;8.924;2022-09-03T12:27:03;4.28;;;2.70;;
20078;SDS011;10199;48.850;8.924;2022-09-03T12:29:33;2.67;;;2.40;;
20078;SDS011;10199;48.850;8.924;2022-09-03T12:32:05;2.00;;;1.65;;
20078;SDS011;10199;48.850;8.924;2022-09-03T12:34:34;2.83;;;2.00;;
20078;SDS011;10199;48.850;8.924;2022-09-03T12:37:02;2.35;;;1.27;;
20078;SDS011;10199;48.850;8.924;2022-09-03T12:39:30;1.88;;;0.98;;
20078;SDS011;10199;48.850;8.924;2022-09-03T12:42:19;1.15;;;0.95;;
20078;SDS011;10199;48.850;8.924;2022-09-03T12:44:53;1.83;;;1.00;;
20078;SDS011;10199;48.850;8.924;2022-09-03T12:47:22;1.13;;;0.90;;
20078;SDS011;10199;48.850;8.924;2022-09-03T12:50:03;0.77;;;0.70;;
20078;SDS011;10199;48.850;8.924;2022-09-03T12:52:34;0.80;;;0.52;;
20078;SDS011;10199;48.850;8.924;2022-09-03T12:55:07;0.95;;;0.90;;
20078;SDS011;10199;48.850;8.924;2022-09-03T12:57:46;1.42;;;0.80;;
20078;SDS011;10199;48.850;8.924;2022-09-03T13:03:17;0.85;;;0.85;;
20078;SDS011;10199;48.850;8.924;2022-09-03T13:05:49;1.35;;;1.08;;
20078;SDS011;10199;48.850;8.924;2022-09-03T13:08:21;1.65;;;0.90;;
20078;SDS011;10199;48.850;8.924;2022-09-03T13:10:52;1.08;;;1.02;;
20078;SDS011;10199;48.850;8.924;2022-09-03T13:13:23;1.10;;;1.00;;
20078;SDS011;10199;48.850;8.924;2022-09-03T13:15:59;1.75;;;0.70;;
20078;SDS011;10199;48.850;8.924;2022-09-03T13:18:40;1.20;;;1.00;;
20078;SDS011;10199;48.850;8.924;2022-09-03T13:21:14;1.17;;;0.90;;
20078;SDS011;10199;48.850;8.924;2022-09-03T13:23:54;1.25;;;1.15;;
20078;SDS011;10199;48.850;8.924;2022-09-03T13:26:34;3.22;;;1.00;;
20078;SDS011;10199;48.850;8.924;2022-09-03T13:32:09;1.67;;;1.00;;
20078;SDS011;10199;48.850;8.924;2022-09-03T13:34:50;2.17;;;1.30;;
20078;SDS011;10199;48.850;8.924;2022-09-03T13:37:22;1.05;;;0.98;;
20078;SDS011;10199;48.850;8.924;2022-09-03T13:39:56;2.45;;;1.25;;
20078;SDS011;10199;48.850;8.924;2022-09-03T13:42:26;1.27;;;1.17;;
20078;SDS011;10199;48.850;8.924;2022-09-03T13:45:02;1.55;;;1.17;;
20078;SDS011;10199;48.850;8.924;2022-09-03T13:47:44;1.50;;;1.10;;
20078;SDS011;10199;48.850;8.924;2022-09-03T13:50:34;1.85;;;1.30;;
20078;SDS011;10199;48.850;8.924;2022-09-03T13:53:08;1.98;;;1.23;;
20078;SDS011;10199;48.850;8.924;2022-09-03T13:55:46;2.53;;;1.80;;
20078;SDS011;10199;48.850;8.924;2022-09-03T13:58:18;1.85;;;1.50;;
20078;SDS011;10199;48.850;8.924;2022-09-03T14:00:51;1.52;;;1.33;;
20078;SDS011;10199;48.850;8.924;2022-09-03T14:03:34;2.70;;;1.67;;
20078;SDS011;10199;48.850;8.924;2022-09-03T14:06:18;1.48;;;1.38;;
20078;SDS011;10199;48.850;8.924;2022-09-03T14:08:58;2.92;;;1.45;;
20078;SDS011;10199;48.850;8.924;2022-09-03T14:11:34;1.42;;;1.33;;
20078;SDS011;10199;48.850;8.924;2022-09-03T14:14:17;1.92;;;1.58;;
20078;SDS011;10199;48.850;8.924;2022-09-03T14:16:58;3.83;;;2.20;;
20078;SDS011;10199;48.850;8.924;2022-09-03T14:19:35;1.85;;;1.63;;
20078;SDS011;10199;48.850;8.924;2022-09-03T14:22:10;2.08;;;1.88;;
20078;SDS011;10199;48.850;8.924;2022-09-03T14:24:46;2.35;;;1.55;;
20078;SDS011;10199;48.850;8.924;2022-09-03T14:27:21;1.85;;;1.70;;
20078;SDS011;10199;48.850;8.924;2022-09-03T14:29:52;1.90;;;1.75;;
20078;SDS011;10199;48.850;8.924;2022-09-03T14:32:29;2.78;;;1.60;;
20078;SDS011;10199;48.850;8.924;2022-09-03T14:35:13;2.90;;;1.75;;
20078;SDS011;10199;48.850;8.924;2022-09-03T14:38:04;2.50;;;1.80;;
20078;SDS011;10199;48.850;8.924;2022-09-03T14:40:51;2.33;;;1.90;;
20078;SDS011;10199;48.850;8.924;2022-09-03T14:43:31;4.95;;;2.00;;
20078;SDS011;10199;48.850;8.924;2022-09-03T14:46:18;2.35;;;1.98;;
20078;SDS011;10199;48.850;8.924;2022-09-03T14:48:59;2.67;;;2.33;;
20078;SDS011;10199;48.850;8.924;2022-09-03T14:51:46;3.85;;;2.35;;
20078;SDS011;10199;48.850;8.924;2022-09-03T14:54:29;2.75;;;2.35;;
20078;SDS011;10199;48.850;8.924;2022-09-03T14:57:24;2.40;;;2.20;;
20078;SDS011;10199;48.850;8.924;2022-09-03T15:00:12;2.30;;;2.10;;
20078;SDS011;10199;48.850;8.924;2022-09-03T15:06:03;2.50;;;2.30;;
20078;SDS011;10199;48.850;8.924;2022-09-03T15:08:48;2.38;;;1.80;;
20078;SDS011;10199;48.850;8.924;2022-09-03T15:11:28;2.38;;;1.90;;
20078;SDS011;10199;48.850;8.924;2022-09-03T15:14:01;4.18;;;2.20;;
20078;SDS011;10199;48.850;8.924;2022-09-03T15:16:42;2.72;;;2.00;;
20078;SDS011;10199;48.850;8.924;2022-09-03T15:19:18;1.90;;;1.70;;
20078;SDS011;10199;48.850;8.924;2022-09-03T15:22:06;1.98;;;1.80;;
20078;SDS011;10199;48.850;8.924;2022-09-03T15:24:45;2.95;;;1.45;;
20078;SDS011;10199;48.850;8.924;2022-09-03T15:30:27;2.85;;;2.00;;
20078;SDS011;10199;48.850;8.924;2022-09-03T15:33:05;2.30;;;1.83;;
20078;SDS011;10199;48.850;8.924;2022-09-03T15:35:52;1.90;;;1.80;;
20078;SDS011;10199;48.850;8.924;2022-09-03T15:38:34;3.15;;;2.10;;
20078;SDS011;10199;48.850;8.924;2022-09-03T15:41:10;2.90;;;2.13;;
20078;SDS011;10199;48.850;8.924;2022-09-03T15:43:48;2.08;;;1.88;;
20078;SDS011;10199;48.850;8.924;2022-09-03T15:46:34;2.58;;;2.20;;
20078;SDS011;10199;48.850;8.924;2022-09-03T15:49:07;3.17;;;2.25;;
20078;SDS011;10199;48.850;8.924;2022-09-03T15:51:46;1.83;;;1.70;;
20078;SDS011;10199;48.850;8.924;2022-09-03T15:54:31;2.10;;;1.77;;
20078;SDS011;10199;48.850;8.924;2022-09-03T15:57:11;2.05;;;1.80;;
20078;SDS011;10199;48.850;8.924;2022-09-03T15:59:46;2.35;;;2.00;;
20078;SDS011;10199;48.850;8.924;2022-09-03T16:02:19;3.00;;;2.47;;
20078;SDS011;10199;48.850;8.924;2022-09-03T16:04:55;3.50;;;2.70;;
20078;SDS011;10199;48.850;8.924;2022-09-03T16:07:38;4.53;;;2.80;;